createdAt,value
2023-04-15T00:00:58.429Z,94799.81
2023-04-15T00:03:25.398Z,94796.28
2023-04-15T00:05:52.145Z,94793.25
2023-04-15T00:08:18.649Z,94792.78
2023-04-15T00:10:46.507Z,94787.78
2023-04-15T00:13:13.139Z,94789.03
2023-04-15T00:15:39.619Z,94792.09
2023-04-15T00:18:07.399Z,94792.56
2023-04-15T00:20:34.300Z,94793.03
2023-04-15T00:23:02.583Z,94791.75
2023-04-15T00:25:29.322Z,94786.16
2023-04-15T00:27:55.837Z,94790.84
2023-04-15T00:30:22.502Z,94796.13
2023-04-15T00:32:49.587Z,94790.53
2023-04-15T00:35:16.527Z,94780.56
2023-04-15T00:37:44.229Z,94778.16
2023-04-15T00:40:13.759Z,94787.47
2023-04-15T00:42:40.797Z,94788.91
2023-04-15T00:45:08.730Z,94789.88
2023-04-15T00:47:37.622Z,94780.59
2023-04-15T00:50:04.930Z,94776.72
2023-04-15T00:52:31.978Z,94777.53
2023-04-15T00:54:59.085Z,94779.63
2023-04-15T00:57:26.104Z,94774.31
2023-04-15T00:59:53.827Z,94779.44
2023-04-15T01:02:20.914Z,94777.53
2023-04-15T01:04:47.634Z,94777.84
2023-04-15T01:07:14.416Z,94772.41
2023-04-15T01:09:41.607Z,94771.91
2023-04-15T01:12:11.993Z,94763.75
2023-04-15T01:14:38.725Z,94754.44
2023-04-15T01:17:05.342Z,94754.94
2023-04-15T01:19:31.788Z,94754.94
2023-04-15T01:21:58.315Z,94758.13
2023-04-15T01:24:27.104Z,94751.22
2023-04-15T01:26:54.101Z,94751.22
2023-04-15T01:29:21.079Z,94752.53
2023-04-15T01:31:55.960Z,94748.03
2023-04-15T01:34:22.860Z,94754.78
2023-04-15T01:36:49.381Z,94758.31
2023-04-15T01:39:15.892Z,94745.47
2023-04-15T01:41:46.348Z,94748.19
2023-04-15T01:44:12.866Z,94745.31
2023-04-15T01:46:39.346Z,94746.09
2023-04-15T01:49:06.195Z,94752.22
2023-04-15T01:51:32.960Z,94746.28
2023-04-15T01:53:59.369Z,94751.72
2023-04-15T01:56:26.468Z,94751.25
2023-04-15T01:58:53.185Z,94747.25
2023-04-15T02:01:20.002Z,94744.53
2023-04-15T02:03:47.930Z,94743.25
2023-04-15T02:06:14.763Z,94747.41
2023-04-15T02:08:41.246Z,94750.75
2023-04-15T02:11:09.411Z,94747.41
2023-04-15T02:13:36.364Z,94747.53
2023-04-15T02:16:03.620Z,94744.31
2023-04-15T02:18:30.527Z,94755.53
2023-04-15T02:20:58.568Z,94759.34
2023-04-15T02:23:25.444Z,94771.69
2023-04-15T02:25:53.279Z,94758.22
2023-04-15T02:28:20.682Z,94772.16
2023-04-15T02:30:52.779Z,94766.72
2023-04-15T02:33:20.256Z,94768.94
2023-04-15T02:35:47.266Z,94763.81
2023-04-15T02:38:14.756Z,94762.84
2023-04-15T02:40:41.540Z,94763.16
2023-04-15T02:43:07.995Z,94764.59
2023-04-15T02:45:34.665Z,94768.28
2023-04-15T02:48:06.169Z,94764.44
2023-04-15T02:50:33.220Z,94766.97
2023-04-15T02:53:01.306Z,94768.41
2023-04-15T02:55:28.360Z,94771.94
2023-04-15T02:57:54.880Z,94775.78
2023-04-15T03:00:21.611Z,94775.78
2023-04-15T03:02:49.834Z,94773.22
2023-04-15T03:05:16.486Z,94769.38
2023-04-15T03:07:43.049Z,94763.16
2023-04-15T03:10:10.488Z,94762.19
2023-04-15T03:12:36.930Z,94763.00
2023-04-15T03:15:03.641Z,94759.47
2023-04-15T03:17:30.103Z,94766.03
2023-04-15T03:19:56.592Z,94764.13
2023-04-15T03:22:23.130Z,94756.75
2023-04-15T03:24:49.883Z,94765.06
2023-04-15T03:27:16.283Z,94768.28
2023-04-15T03:29:42.833Z,94772.09
2023-04-15T03:32:09.315Z,94773.84
2023-04-15T03:34:36.067Z,94766.63
2023-04-15T03:37:02.497Z,94765.34
2023-04-15T03:39:28.963Z,94770.78
2023-04-15T03:41:56.395Z,94771.75
2023-04-15T03:44:22.816Z,94769.38
2023-04-15T03:46:49.378Z,94764.13
2023-04-15T03:49:16.313Z,94768.31
2023-04-15T03:51:42.721Z,94768.31
2023-04-15T03:54:09.191Z,94762.56
2023-04-15T03:56:35.891Z,94777.94
2023-04-15T03:59:02.565Z,94773.91
2023-04-15T04:01:29.217Z,94772.50
2023-04-15T04:03:56.072Z,94783.38
2023-04-15T04:06:22.634Z,94774.09
2023-04-15T04:08:49.140Z,94779.53
2023-04-15T04:11:17.089Z,94786.72
2023-04-15T04:13:43.504Z,94789.13
2023-04-15T04:16:09.994Z,94787.34
2023-04-15T04:18:36.528Z,94793.72
2023-04-15T04:21:03.210Z,94799.94
2023-04-15T04:23:29.745Z,94800.25
2023-04-15T04:25:56.435Z,94795.13
2023-04-15T04:28:22.994Z,94796.88
2023-04-15T04:30:49.556Z,94795.75
2023-04-15T04:33:16.424Z,94802.31
2023-04-15T04:35:43.000Z,94801.84
2023-04-15T04:38:09.402Z,94802.63
2023-04-15T04:40:36.213Z,94804.88
2023-04-15T04:43:03.029Z,94799.44
2023-04-15T04:45:29.452Z,94798.16
2023-04-15T04:47:56.070Z,94804.41
2023-04-15T04:50:22.573Z,94801.56
2023-04-15T04:52:49.019Z,94803.00
2023-04-15T04:55:15.995Z,94802.25
2023-04-15T04:57:42.499Z,94802.06
2023-04-15T05:00:09.482Z,94802.25
2023-04-15T05:02:36.333Z,94807.53
2023-04-15T05:05:02.963Z,94805.44
2023-04-15T05:07:29.461Z,94804.00
2023-04-15T05:09:56.040Z,94809.31
2023-04-15T05:12:22.682Z,94817.31
2023-04-15T05:14:49.177Z,94817.94
2023-04-15T05:17:15.757Z,94817.94
2023-04-15T05:19:42.171Z,94824.97
2023-04-15T05:22:08.661Z,94833.00
2023-04-15T05:24:35.205Z,94826.09
2023-04-15T05:27:02.113Z,94823.09
2023-04-15T05:29:28.541Z,94830.78
2023-04-15T05:31:55.536Z,94841.03
2023-04-15T05:34:22.423Z,94837.34
2023-04-15T05:36:48.863Z,94840.69
2023-04-15T05:39:15.479Z,94845.00
2023-04-15T05:41:42.016Z,94849.97
2023-04-15T05:44:08.445Z,94849.81
2023-04-15T05:46:34.961Z,94861.81
2023-04-15T05:49:01.924Z,94860.88
2023-04-15T05:51:28.518Z,94865.84
2023-04-15T05:53:54.970Z,94861.19
2023-04-15T05:56:22.167Z,94855.63
2023-04-15T05:58:48.783Z,94861.56
2023-04-15T06:01:15.484Z,94858.53
2023-04-15T06:03:42.765Z,94870.22
2023-04-15T06:06:09.904Z,94874.72
2023-04-15T06:08:36.667Z,94873.78
2023-04-15T06:11:03.567Z,94875.06
2023-04-15T06:13:30.147Z,94870.44
2023-04-15T06:15:56.716Z,94875.28
2023-04-15T06:18:23.258Z,94877.88
2023-04-15T06:20:49.822Z,94882.38
2023-04-15T06:23:16.336Z,94880.13
2023-04-15T06:25:42.925Z,94882.56
2023-04-15T06:28:09.390Z,94876.31
2023-04-15T06:30:36.193Z,94887.38
2023-04-15T06:33:05.490Z,94889.59
2023-04-15T06:35:32.184Z,94895.56
2023-04-15T06:37:58.700Z,94907.44
2023-04-15T06:40:25.179Z,94911.13
2023-04-15T06:42:51.708Z,94909.34
2023-04-15T06:45:18.432Z,94902.63
2023-04-15T06:47:44.860Z,94906.94
2023-04-15T06:50:11.586Z,94903.03
2023-04-15T06:52:38.100Z,94901.78
2023-04-15T06:55:05.333Z,94903.09
2023-04-15T06:57:33.720Z,94898.88
2023-04-15T07:00:01.625Z,94905.91
2023-04-15T07:02:28.149Z,94910.44
2023-04-15T07:04:55.576Z,94913.13
2023-04-15T07:07:22.193Z,94908.47
2023-04-15T07:09:48.765Z,94922.63
2023-04-15T07:12:15.289Z,94923.88
2023-04-15T07:14:41.735Z,94927.72
2023-04-15T07:17:09.475Z,94927.13
2023-04-15T07:19:36.044Z,94918.66
2023-04-15T07:22:02.460Z,94927.59
2023-04-15T07:24:28.954Z,94930.66
2023-04-15T07:27:00.830Z,94926.53
2023-04-15T07:29:27.879Z,94933.72
2023-04-15T07:31:54.445Z,94940.31
2023-04-15T07:34:21.102Z,94938.75
2023-04-15T07:36:50.585Z,94948.13
2023-04-15T07:39:17.782Z,94945.25
2023-04-15T07:41:45.603Z,94954.91
2023-04-15T07:44:12.116Z,94951.38
2023-04-15T07:46:38.919Z,94955.91
2023-04-15T07:49:05.452Z,94957.38
2023-04-15T07:51:32.243Z,94955.41
2023-04-15T07:53:59.283Z,94960.31
2023-04-15T07:56:26.483Z,94961.13
2023-04-15T07:58:53.370Z,94962.59
2023-04-15T08:01:19.968Z,94974.75
2023-04-15T08:03:47.200Z,94966.28
2023-04-15T08:06:14.802Z,94975.03
2023-04-15T08:08:41.617Z,94972.25
2023-04-15T08:11:09.441Z,94969.31
2023-04-15T08:13:36.133Z,94972.75
2023-04-15T08:16:22.919Z,94971.38
2023-04-15T08:18:51.513Z,94979.94
2023-04-15T08:21:19.410Z,94981.66
2023-04-15T08:23:47.758Z,94978.31
2023-04-15T08:26:14.289Z,94975.19
2023-04-15T08:28:42.168Z,94987.22
2023-04-15T08:31:09.491Z,94979.91
2023-04-15T08:33:36.394Z,94982.06
2023-04-15T08:36:03.321Z,94987.47
2023-04-15T08:38:29.878Z,94993.94
2023-04-15T08:40:59.990Z,94986.88
2023-04-15T08:43:34.449Z,94987.22
2023-04-15T08:46:02.122Z,94993.41
2023-04-15T08:48:38.477Z,94999.16
2023-04-15T08:51:05.398Z,94998.44
2023-04-15T08:53:32.605Z,94994.44
2023-04-15T08:56:02.940Z,94998.38
2023-04-15T08:58:30.006Z,95001.06
2023-04-15T09:00:57.345Z,94997.81
2023-04-15T09:03:24.841Z,95001.72
2023-04-15T09:05:53.280Z,95000.19
2023-04-15T09:08:19.854Z,95007.84
2023-04-15T09:10:46.424Z,95016.41
2023-04-15T09:13:13.654Z,95020.94
2023-04-15T09:15:40.243Z,95015.53
2023-04-15T09:18:07.051Z,95020.31
2023-04-15T09:20:43.084Z,95030.31
2023-04-15T09:23:14.406Z,95020.09
2023-04-15T09:25:44.593Z,95019.53
2023-04-15T09:28:11.459Z,95024.44
2023-04-15T09:30:38.031Z,95022.00
2023-04-15T09:33:08.876Z,95031.19
2023-04-15T09:35:38.574Z,95031.34
2023-04-15T09:38:07.860Z,95035.72
2023-04-15T09:40:39.538Z,95034.25
2023-04-15T09:43:07.573Z,95025.66
2023-04-15T09:45:35.784Z,95039.63
2023-04-15T09:48:23.542Z,95040.06
2023-04-15T09:50:51.007Z,95050.47
2023-04-15T09:53:22.153Z,95050.06
2023-04-15T09:55:51.658Z,95050.56
2023-04-15T09:58:29.447Z,95055.50
2023-04-15T10:00:58.024Z,95057.69
2023-04-15T10:03:26.014Z,95073.56
2023-04-15T10:05:55.890Z,95073.00
2023-04-15T10:08:25.248Z,95080.22
2023-04-15T10:10:52.400Z,95073.91
2023-04-15T10:13:20.786Z,95081.81
2023-04-15T10:15:53.389Z,95088.31
2023-04-15T10:18:21.740Z,95088.09
2023-04-15T10:20:48.757Z,95086.75
2023-04-15T10:23:15.833Z,95090.53
2023-04-15T10:25:42.561Z,95078.09
2023-04-15T10:28:09.526Z,95078.19
2023-04-15T10:30:37.073Z,95091.50
2023-04-15T10:33:05.385Z,95081.53
2023-04-15T10:35:33.997Z,95080.44
2023-04-15T10:38:00.472Z,95084.28
2023-04-15T10:40:31.946Z,95085.13
2023-04-15T10:43:02.431Z,95097.97
2023-04-15T10:45:36.831Z,95094.16
2023-04-15T10:48:06.611Z,95092.78
2023-04-15T10:50:33.340Z,95113.63
2023-04-15T10:53:03.661Z,95106.91
2023-04-15T10:55:34.183Z,95116.84
2023-04-15T10:58:02.098Z,95105.34
2023-04-15T11:00:30.414Z,95113.75
2023-04-15T11:03:09.536Z,95107.53
2023-04-15T11:05:42.053Z,95111.31
2023-04-15T11:08:13.127Z,95119.13
2023-04-15T11:10:39.481Z,95121.38
2023-04-15T11:13:17.281Z,95115.09
2023-04-15T11:15:45.102Z,95127.44
2023-04-15T11:18:13.639Z,95120.31
2023-04-15T11:20:41.679Z,95127.53
2023-04-15T11:23:14.261Z,95135.06
2023-04-15T11:25:43.294Z,95135.53
2023-04-15T11:28:11.400Z,95145.88
2023-04-15T11:30:39.313Z,95155.63
2023-04-15T11:33:08.629Z,95159.25
2023-04-15T11:35:36.034Z,95152.44
2023-04-15T11:38:08.693Z,95167.41
2023-04-15T11:40:35.830Z,95163.56
2023-04-15T11:43:12.015Z,95167.72
2023-04-15T11:45:48.879Z,95156.53
2023-04-15T11:48:15.628Z,95178.16
2023-04-15T11:50:42.081Z,95169.50
2023-04-15T11:53:10.224Z,95182.38
2023-04-15T11:55:47.949Z,95184.66
2023-04-15T11:58:16.639Z,95180.13
2023-04-15T12:00:47.918Z,95184.84
2023-04-15T12:03:14.563Z,95188.06
2023-04-15T12:06:07.188Z,95201.69
2023-04-15T12:08:54.111Z,95199.00
2023-04-15T12:11:26.694Z,95206.84
2023-04-15T12:14:28.838Z,95211.28
2023-04-15T12:17:02.024Z,95204.88
2023-04-15T12:19:36.134Z,95223.28
2023-04-15T12:22:05.282Z,95225.97
2023-04-15T12:24:33.166Z,95218.28
2023-04-15T12:27:07.860Z,95222.03
2023-04-15T12:29:36.166Z,95213.66
2023-04-15T12:32:08.604Z,95227.56
2023-04-15T12:34:37.482Z,95242.50
2023-04-15T12:37:06.144Z,95244.38
2023-04-15T12:39:36.000Z,95252.63
2023-04-15T12:42:04.347Z,95249.13
2023-04-15T12:44:30.913Z,95244.00
2023-04-15T12:46:58.169Z,95263.66
2023-04-15T12:49:25.465Z,95257.63
2023-04-15T12:51:54.760Z,95245.94
2023-04-15T12:54:22.004Z,95247.09
2023-04-15T12:56:49.941Z,95243.19
2023-04-15T12:59:18.718Z,95276.41
2023-04-15T13:01:46.562Z,95260.00
2023-04-15T13:04:13.297Z,95269.47
2023-04-15T13:06:40.109Z,95277.53
2023-04-15T13:09:06.770Z,95271.22
2023-04-15T13:11:33.959Z,95270.06
2023-04-15T13:14:02.325Z,95273.28
2023-04-15T13:16:29.377Z,95293.50
2023-04-15T13:18:56.272Z,95290.75
2023-04-15T13:21:22.771Z,95293.75
2023-04-15T13:23:50.888Z,95300.34
2023-04-15T13:26:18.192Z,95299.63
2023-04-15T13:28:44.701Z,95297.94
2023-04-15T13:31:11.376Z,95311.09
2023-04-15T13:33:37.820Z,95326.56
2023-04-15T13:36:04.315Z,95299.88
2023-04-15T13:38:30.777Z,95316.16
2023-04-15T13:40:57.205Z,95314.06
2023-04-15T13:43:23.728Z,95311.00
2023-04-15T13:45:50.177Z,95310.91
2023-04-15T13:48:17.083Z,95335.47
2023-04-15T13:50:45.428Z,95344.78
2023-04-15T13:53:12.668Z,95351.22
2023-04-15T13:55:42.699Z,95333.06
2023-04-15T13:58:09.952Z,95342.91
2023-04-15T14:00:36.469Z,95349.72
2023-04-15T14:03:03.102Z,95348.22
2023-04-15T14:05:29.748Z,95364.53
2023-04-15T14:07:56.271Z,95354.22
2023-04-15T14:10:22.698Z,95361.75
2023-04-15T14:12:49.119Z,95362.78
2023-04-15T14:15:15.738Z,95363.44
2023-04-15T14:17:42.535Z,95377.78
2023-04-15T14:20:09.931Z,95367.31
2023-04-15T14:22:36.397Z,95383.97
2023-04-15T14:25:02.947Z,95385.22
2023-04-15T14:27:29.404Z,95392.38
2023-04-15T14:29:57.682Z,95398.75
2023-04-15T14:32:25.920Z,95403.22
2023-04-15T14:34:52.483Z,95403.31
2023-04-15T14:37:19.150Z,95406.66
2023-04-15T14:39:45.621Z,95411.81
2023-04-15T14:42:12.027Z,95402.69
2023-04-15T14:44:38.893Z,95421.88
2023-04-15T14:47:06.088Z,95408.69
2023-04-15T14:49:32.673Z,95425.88
2023-04-15T14:51:59.111Z,95439.78
2023-04-15T14:54:25.561Z,95434.63
2023-04-15T14:56:51.960Z,95441.34
2023-04-15T14:59:18.464Z,95439.00
2023-04-15T15:01:45.061Z,95450.25
2023-04-15T15:04:12.001Z,95452.38
2023-04-15T15:06:39.409Z,95449.38
2023-04-15T15:09:06.163Z,95463.75
2023-04-15T15:11:32.916Z,95465.22
2023-04-15T15:13:59.372Z,95461.38
2023-04-15T15:16:26.216Z,95466.19
2023-04-15T15:18:52.711Z,95466.63
2023-04-15T15:21:19.337Z,95481.25
2023-04-15T15:23:46.092Z,95476.56
2023-04-15T15:26:12.663Z,95473.66
2023-04-15T15:28:39.358Z,95473.88
2023-04-15T15:31:06.059Z,95482.16
2023-04-15T15:33:32.817Z,95481.19
2023-04-15T15:35:59.400Z,95478.97
2023-04-15T15:38:26.335Z,95481.25
2023-04-15T15:40:52.803Z,95503.34
2023-04-15T15:43:19.335Z,95504.56
2023-04-15T15:45:45.807Z,95502.28
2023-04-15T15:48:12.318Z,95502.31
2023-04-15T15:50:38.924Z,95510.16
2023-04-15T15:53:05.364Z,95508.59
2023-04-15T15:55:31.848Z,95510.81
2023-04-15T15:57:58.306Z,95513.84
2023-04-15T16:00:24.754Z,95513.66
2023-04-15T16:03:05.187Z,95532.72
2023-04-15T16:05:33.021Z,95507.25
2023-04-15T16:07:59.482Z,95519.84
2023-04-15T16:10:26.073Z,95528.66
2023-04-15T16:12:52.560Z,95528.41
2023-04-15T16:15:19.146Z,95526.91
2023-04-15T16:17:45.805Z,95530.22
2023-04-15T16:20:12.313Z,95532.50
2023-04-15T16:22:39.033Z,95531.31
2023-04-15T16:25:06.095Z,95533.16
2023-04-15T16:27:33.818Z,95538.66
2023-04-15T16:30:01.955Z,95533.69
2023-04-15T16:32:28.423Z,95536.13
2023-04-15T16:34:55.666Z,95542.88
2023-04-15T16:37:22.103Z,95556.75
2023-04-15T16:39:48.612Z,95560.31
2023-04-15T16:42:15.066Z,95558.16
2023-04-15T16:44:41.500Z,95563.03
2023-04-15T16:47:11.069Z,95571.84
2023-04-15T16:49:38.151Z,95557.31
2023-04-15T16:52:04.779Z,95567.97
2023-04-15T16:54:33.448Z,95579.84
2023-04-15T16:56:59.898Z,95584.19
2023-04-15T16:59:27.231Z,95576.69
2023-04-15T17:01:55.098Z,95576.47
2023-04-15T17:04:21.841Z,95584.81
2023-04-15T17:06:48.517Z,95582.75
2023-04-15T17:09:14.965Z,95583.44
2023-04-15T17:11:43.021Z,95591.06
2023-04-15T17:14:09.513Z,95596.91
2023-04-15T17:16:36.399Z,95589.53
2023-04-15T17:19:03.648Z,95593.88
2023-04-15T17:21:31.853Z,95598.38
2023-04-15T17:23:58.325Z,95607.75
2023-04-15T17:26:24.853Z,95611.97
2023-04-15T17:28:51.308Z,95611.97
2023-04-15T17:31:17.884Z,95608.25
2023-04-15T17:34:01.243Z,95611.81
2023-04-15T17:36:31.617Z,95623.75
2023-04-15T17:38:58.134Z,95626.00
2023-04-15T17:41:24.615Z,95632.94
2023-04-15T17:43:51.188Z,95632.44
2023-04-15T17:46:19.185Z,95629.34
2023-04-15T17:48:46.761Z,95630.00
2023-04-15T17:51:13.326Z,95653.84
2023-04-15T17:53:39.802Z,95642.56
2023-04-15T17:56:06.342Z,95652.81
2023-04-15T17:58:32.871Z,95641.88
2023-04-15T18:00:59.335Z,95644.13
2023-04-15T18:03:26.519Z,95650.72
2023-04-15T18:05:53.183Z,95654.59
2023-04-15T18:08:19.730Z,95656.19
2023-04-15T18:10:46.204Z,95661.63
2023-04-15T18:13:12.699Z,95663.53
2023-04-15T18:15:39.237Z,95668.66
2023-04-15T18:18:05.927Z,95670.75
2023-04-15T18:20:33.603Z,95670.91
2023-04-15T18:23:00.150Z,95690.56
2023-04-15T18:25:26.678Z,95696.03
2023-04-15T18:27:54.822Z,95692.31
2023-04-15T18:30:21.412Z,95694.06
2023-04-15T18:32:47.966Z,95704.53
2023-04-15T18:35:14.562Z,95708.72
2023-04-15T18:37:41.045Z,95709.53
2023-04-15T18:40:08.076Z,95716.59
2023-04-15T18:42:34.913Z,95718.84
2023-04-15T18:45:01.395Z,95721.59
2023-04-15T18:47:28.086Z,95718.34
2023-04-15T18:49:54.667Z,95731.88
2023-04-15T18:52:21.296Z,95727.81
2023-04-15T18:54:47.718Z,95724.28
2023-04-15T18:57:14.143Z,95739.91
2023-04-15T18:59:49.182Z,95744.06
2023-04-15T19:02:15.869Z,95735.00
2023-04-15T19:04:42.462Z,95734.59
2023-04-15T19:07:09.772Z,95748.53
2023-04-15T19:09:36.509Z,95741.69
2023-04-15T19:12:03.391Z,95767.88
2023-04-15T19:14:29.847Z,95768.59
2023-04-15T19:16:56.328Z,95768.97
2023-04-15T19:19:22.801Z,95770.69
2023-04-15T19:21:50.303Z,95791.44
2023-04-15T19:24:18.125Z,95784.47
2023-04-15T19:26:48.027Z,95789.00
2023-04-15T19:29:14.484Z,95792.78
2023-04-15T19:31:40.871Z,95798.03
2023-04-15T19:34:07.426Z,95802.09
2023-04-15T19:36:33.968Z,95817.06
2023-04-15T19:39:01.223Z,95807.84
2023-04-15T19:41:27.800Z,95812.81
2023-04-15T19:43:54.304Z,95816.06
2023-04-15T19:46:20.808Z,95820.41
2023-04-15T19:48:47.465Z,95826.88
2023-04-15T19:51:13.906Z,95821.09
2023-04-15T19:53:41.348Z,95826.47
2023-04-15T19:56:07.771Z,95834.84
2023-04-15T19:58:34.256Z,95828.00
2023-04-15T20:01:01.360Z,95833.47
2023-04-15T20:03:27.985Z,95829.94
2023-04-15T20:05:54.688Z,95834.28
2023-04-15T20:08:21.138Z,95840.56
2023-04-15T20:10:47.575Z,95837.31
2023-04-15T20:13:14.008Z,95849.06
2023-04-15T20:15:40.551Z,95844.78
2023-04-15T20:18:07.009Z,95849.44
2023-04-15T20:20:34.687Z,95849.25
2023-04-15T20:23:01.297Z,95847.41
2023-04-15T20:25:27.792Z,95848.84
2023-04-15T20:27:54.342Z,95843.19
2023-04-15T20:30:20.913Z,95851.16
2023-04-15T20:32:47.446Z,95849.03
2023-04-15T20:35:13.939Z,95847.44
2023-04-15T20:37:43.875Z,95870.50
2023-04-15T20:40:11.232Z,95868.38
2023-04-15T20:42:38.486Z,95866.75
2023-04-15T20:45:06.973Z,95869.47
2023-04-15T20:47:33.413Z,95867.97
2023-04-15T20:49:59.902Z,95867.44
2023-04-15T20:52:26.341Z,95865.63
2023-04-15T20:54:52.783Z,95870.06
2023-04-15T20:57:20.360Z,95876.94
2023-04-15T20:59:46.879Z,95875.31
2023-04-15T21:02:13.441Z,95877.03
2023-04-15T21:04:39.929Z,95879.25
2023-04-15T21:07:06.501Z,95890.47
2023-04-15T21:09:33.178Z,95885.63
2023-04-15T21:12:01.130Z,95899.56
2023-04-15T21:14:28.716Z,95885.97
2023-04-15T21:16:56.564Z,95887.91
2023-04-15T21:19:22.977Z,95894.78
2023-04-15T21:21:49.374Z,95894.25
2023-04-15T21:24:15.864Z,95896.22
2023-04-15T21:26:42.281Z,95904.81
2023-04-15T21:29:11.481Z,95902.66
2023-04-15T21:31:38.645Z,95912.56
2023-04-15T21:34:05.463Z,95913.97
2023-04-15T21:36:32.199Z,95918.63
2023-04-15T21:38:58.633Z,95915.16
2023-04-15T21:41:25.695Z,95925.25
2023-04-15T21:43:53.309Z,95923.41
2023-04-15T21:46:24.272Z,95918.34
2023-04-15T21:48:54.711Z,95934.50
2023-04-15T21:51:21.145Z,95927.19
2023-04-15T21:53:47.636Z,95942.75
2023-04-15T21:56:14.514Z,95940.38
2023-04-15T21:58:40.939Z,95934.19
2023-04-15T22:01:07.449Z,95950.34
2023-04-15T22:03:35.235Z,95949.31
2023-04-15T22:06:03.182Z,95949.94
2023-04-15T22:08:32.108Z,95946.16
2023-04-15T22:11:00.239Z,95945.13
2023-04-15T22:13:26.708Z,95947.03
2023-04-15T22:15:53.118Z,95950.34
2023-04-15T22:18:19.559Z,95955.56
2023-04-15T22:20:46.028Z,95952.34
2023-04-15T22:23:13.650Z,95962.19
2023-04-15T22:25:40.408Z,95958.72
2023-04-15T22:28:08.280Z,95974.25
2023-04-15T22:30:41.530Z,95973.44
2023-04-15T22:33:09.295Z,95980.59
2023-04-15T22:35:37.354Z,95985.28
2023-04-15T22:38:04.582Z,95989.09
2023-04-15T22:40:31.039Z,95993.44
2023-04-15T22:42:57.515Z,95989.63
2023-04-15T22:45:23.987Z,95993.75
2023-04-15T22:47:50.583Z,95991.59
2023-04-15T22:50:17.188Z,95997.84
2023-04-15T22:52:46.130Z,95995.94
2023-04-15T22:55:12.839Z,96003.25
2023-04-15T22:57:39.260Z,96003.81
2023-04-15T23:00:07.269Z,96002.97
2023-04-15T23:02:34.760Z,96008.69
2023-04-15T23:05:04.239Z,96020.69
2023-04-15T23:07:39.796Z,96020.41
2023-04-15T23:10:07.974Z,96024.22
2023-04-15T23:12:34.553Z,96021.22
2023-04-15T23:15:00.993Z,96016.41
2023-04-15T23:17:27.586Z,96023.47
2023-04-15T23:19:54.090Z,96028.16
2023-04-15T23:22:20.524Z,96029.22
2023-04-15T23:24:46.991Z,96032.50
2023-04-15T23:27:13.434Z,96031.19
2023-04-15T23:29:39.873Z,96032.84
2023-04-15T23:32:06.637Z,96029.03
2023-04-15T23:34:33.078Z,96037.78
2023-04-15T23:37:00.506Z,96028.78
2023-04-15T23:39:27.070Z,96043.78
2023-04-15T23:41:53.577Z,96036.44
2023-04-15T23:44:20.307Z,96041.59
2023-04-15T23:46:46.813Z,96046.53
2023-04-15T23:49:13.354Z,96043.78
2023-04-15T23:51:39.965Z,96033.47
2023-04-15T23:54:06.417Z,96040.59
2023-04-15T23:56:32.941Z,96048.19
2023-04-15T23:58:59.349Z,96050.91
